createdAt,value
2023-03-28T00:01:30.636Z,1.98
2023-03-28T00:03:57.736Z,1.60
2023-03-28T00:06:26.340Z,1.77
2023-03-28T00:08:54.062Z,1.98
2023-03-28T00:11:22.725Z,1.63
2023-03-28T00:13:58.449Z,2.08
2023-03-28T00:16:26.141Z,1.65
2023-03-28T00:18:53.414Z,1.58
2023-03-28T00:21:29.830Z,1.92
2023-03-28T00:24:02.376Z,1.60
2023-03-28T00:26:32.924Z,1.50
2023-03-28T00:29:01.592Z,1.30
2023-03-28T00:31:29.492Z,1.40
2023-03-28T00:33:57.872Z,1.27
2023-03-28T00:36:29.858Z,1.00
2023-03-28T00:38:58.008Z,1.00
2023-03-28T00:41:31.483Z,0.75
2023-03-28T00:43:59.728Z,0.80
2023-03-28T00:46:36.672Z,0.68
2023-03-28T00:49:10.002Z,0.57
2023-03-28T00:52:02.518Z,0.57
2023-03-28T00:54:34.421Z,0.70
2023-03-28T00:57:02.988Z,0.95
2023-03-28T00:59:33.288Z,0.70
2023-03-28T01:02:00.163Z,0.57
2023-03-28T01:04:49.663Z,0.70
2023-03-28T01:07:17.358Z,0.77
2023-03-28T01:09:44.643Z,0.75
2023-03-28T01:12:15.817Z,1.05
2023-03-28T01:14:44.165Z,1.00
2023-03-28T01:17:11.089Z,0.93
2023-03-28T01:19:59.365Z,0.57
2023-03-28T01:23:26.528Z,0.73
2023-03-28T01:26:17.952Z,0.68
2023-03-28T01:28:59.739Z,0.80
2023-03-28T01:31:43.928Z,0.77
2023-03-28T01:34:35.066Z,0.75
2023-03-28T01:37:10.806Z,0.60
2023-03-28T01:39:49.531Z,0.50
2023-03-28T01:42:34.436Z,0.40
2023-03-28T01:45:19.324Z,0.60
2023-03-28T01:47:58.628Z,0.68
2023-03-28T01:50:38.651Z,0.40
2023-03-28T01:53:27.354Z,0.50
2023-03-28T01:56:24.130Z,0.70
2023-03-28T01:59:01.938Z,0.70
2023-03-28T02:01:45.283Z,0.57
2023-03-28T02:04:21.370Z,0.50
2023-03-28T02:06:50.846Z,0.45
2023-03-28T02:09:24.177Z,0.52
2023-03-28T02:12:13.689Z,0.52
2023-03-28T02:14:43.940Z,0.88
2023-03-28T02:17:16.156Z,0.70
2023-03-28T02:19:49.362Z,0.70
2023-03-28T02:22:32.509Z,0.68
2023-03-28T02:25:00.099Z,0.80
2023-03-28T02:27:26.916Z,1.23
2023-03-28T02:29:56.898Z,0.80
2023-03-28T02:32:27.235Z,1.10
2023-03-28T02:34:55.710Z,0.88
2023-03-28T02:37:45.780Z,1.25
2023-03-28T02:40:40.018Z,0.80
2023-03-28T02:43:25.854Z,1.05
2023-03-28T02:46:12.784Z,1.60
2023-03-28T02:49:07.588Z,1.10
2023-03-28T02:51:53.370Z,0.80
2023-03-28T02:54:31.786Z,0.95
2023-03-28T02:57:22.865Z,0.90
2023-03-28T03:00:00.564Z,1.08
2023-03-28T03:02:29.171Z,1.10
2023-03-28T03:04:57.987Z,1.10
2023-03-28T03:07:25.721Z,1.10
2023-03-28T03:09:54.521Z,1.00
2023-03-28T03:12:21.860Z,1.00
2023-03-28T03:14:51.173Z,1.23
2023-03-28T03:17:18.177Z,1.30
2023-03-28T03:19:44.803Z,0.93
2023-03-28T03:22:21.244Z,1.10
2023-03-28T03:24:51.711Z,1.00
2023-03-28T03:27:19.484Z,1.00
2023-03-28T03:29:48.683Z,1.50
2023-03-28T03:32:15.636Z,1.30
2023-03-28T03:34:42.724Z,1.00
2023-03-28T03:37:10.337Z,1.00
2023-03-28T03:39:37.507Z,1.45
2023-03-28T03:42:04.953Z,1.40
2023-03-28T03:44:31.918Z,1.30
2023-03-28T03:46:58.852Z,1.40
2023-03-28T03:49:26.006Z,1.20
2023-03-28T03:51:53.007Z,1.45
2023-03-28T03:54:19.955Z,1.38
2023-03-28T03:56:50.145Z,2.22
2023-03-28T03:59:17.158Z,1.13
2023-03-28T04:01:44.258Z,1.52
2023-03-28T04:04:11.782Z,1.10
2023-03-28T04:06:41.639Z,1.48
2023-03-28T04:09:08.686Z,1.83
2023-03-28T04:11:36.238Z,1.60
2023-03-28T04:14:02.953Z,1.10
2023-03-28T04:16:29.941Z,0.98
2023-03-28T04:19:08.496Z,1.23
2023-03-28T04:21:35.852Z,1.20
2023-03-28T04:24:02.606Z,1.75
2023-03-28T04:26:30.442Z,1.33
2023-03-28T04:28:57.436Z,1.73
2023-03-28T04:31:28.810Z,1.27
2023-03-28T04:33:56.702Z,1.08
2023-03-28T04:36:25.953Z,1.55
2023-03-28T04:38:52.922Z,1.30
2023-03-28T04:41:21.786Z,1.40
2023-03-28T04:43:49.000Z,1.23
2023-03-28T04:46:40.054Z,1.30
2023-03-28T04:49:06.878Z,1.27
2023-03-28T04:51:33.491Z,1.50
2023-03-28T04:54:00.592Z,1.20
2023-03-28T04:56:27.414Z,1.30
2023-03-28T04:58:54.166Z,1.40
2023-03-28T05:01:22.988Z,1.40
2023-03-28T05:03:49.735Z,1.50
2023-03-28T05:06:16.563Z,1.42
2023-03-28T05:08:44.179Z,1.40
2023-03-28T05:11:11.697Z,1.52
2023-03-28T05:13:38.340Z,1.20
2023-03-28T05:16:06.362Z,1.63
2023-03-28T05:18:32.985Z,1.48
2023-03-28T05:21:00.149Z,1.33
2023-03-28T05:23:27.841Z,1.58
2023-03-28T05:25:55.178Z,1.10
2023-03-28T05:28:22.487Z,1.73
2023-03-28T05:30:49.941Z,1.10
2023-03-28T05:33:16.730Z,1.17
2023-03-28T05:35:43.830Z,1.30
2023-03-28T05:38:10.865Z,1.58
2023-03-28T05:40:37.847Z,1.40
2023-03-28T05:43:05.228Z,1.52
2023-03-28T05:45:34.627Z,1.40
2023-03-28T05:48:01.448Z,1.48
2023-03-28T05:50:28.525Z,1.48
2023-03-28T05:52:55.323Z,1.75
2023-03-28T05:55:23.248Z,1.75
2023-03-28T05:57:50.086Z,1.30
2023-03-28T06:00:18.974Z,1.50
2023-03-28T06:02:46.719Z,2.28
2023-03-28T06:05:16.705Z,2.20
2023-03-28T06:07:44.293Z,1.92
2023-03-28T06:10:13.313Z,2.83
2023-03-28T06:12:42.980Z,1.73
2023-03-28T06:15:11.531Z,2.08
2023-03-28T06:17:38.573Z,1.83
2023-03-28T06:20:06.772Z,1.80
2023-03-28T06:22:34.041Z,1.70
2023-03-28T06:25:00.768Z,1.73
2023-03-28T06:27:27.435Z,1.95
2023-03-28T06:29:54.368Z,1.60
2023-03-28T06:32:21.221Z,2.00
2023-03-28T06:35:10.076Z,1.55
2023-03-28T06:37:36.902Z,2.30
2023-03-28T06:40:04.086Z,2.00
2023-03-28T06:42:31.086Z,2.30
2023-03-28T06:44:57.888Z,1.75
2023-03-28T06:47:24.654Z,1.70
2023-03-28T06:49:51.644Z,2.03
2023-03-28T06:52:18.387Z,2.47
2023-03-28T06:54:47.913Z,2.53
2023-03-28T06:57:16.642Z,2.28
2023-03-28T06:59:43.391Z,1.85
2023-03-28T07:02:11.972Z,2.53
2023-03-28T07:04:39.024Z,2.75
2023-03-28T07:07:09.621Z,2.10
2023-03-28T07:09:37.271Z,2.50
2023-03-28T07:12:04.871Z,2.33
2023-03-28T07:14:31.607Z,2.90
2023-03-28T07:16:58.676Z,2.55
2023-03-28T07:19:25.703Z,2.67
2023-03-28T07:21:53.173Z,2.75
2023-03-28T07:24:20.178Z,2.92
2023-03-28T07:26:47.088Z,3.42
2023-03-28T07:29:13.873Z,2.63
2023-03-28T07:31:41.570Z,2.85
2023-03-28T07:34:08.431Z,2.50
2023-03-28T07:36:35.944Z,2.72
2023-03-28T07:39:02.734Z,2.35
2023-03-28T07:41:29.845Z,2.83
2023-03-28T07:43:56.651Z,2.58
2023-03-28T07:46:24.564Z,2.90
2023-03-28T07:48:51.698Z,2.47
2023-03-28T07:51:18.623Z,2.90
2023-03-28T07:53:46.132Z,2.72
2023-03-28T07:56:13.459Z,2.53
2023-03-28T07:58:41.524Z,2.67
2023-03-28T08:01:11.019Z,2.55
2023-03-28T08:03:38.809Z,3.13
2023-03-28T08:06:16.921Z,2.70
2023-03-28T08:08:55.209Z,2.17
2023-03-28T08:11:26.039Z,2.80
2023-03-28T08:13:53.365Z,2.65
2023-03-28T08:16:20.103Z,2.35
2023-03-28T08:18:50.470Z,3.00
2023-03-28T08:21:26.705Z,2.45
2023-03-28T08:23:53.787Z,2.30
2023-03-28T08:26:21.743Z,2.00
2023-03-28T08:28:48.928Z,2.30
2023-03-28T08:31:17.116Z,2.33
2023-03-28T08:33:45.422Z,2.25
2023-03-28T08:36:16.129Z,1.60
2023-03-28T08:38:44.242Z,1.70
2023-03-28T08:41:23.335Z,2.05
2023-03-28T08:44:28.898Z,1.27
2023-03-28T08:47:02.576Z,1.77
2023-03-28T08:49:34.394Z,2.15
2023-03-28T08:52:06.118Z,1.67
2023-03-28T08:55:13.943Z,1.42
2023-03-28T08:57:43.015Z,1.50
2023-03-28T09:00:24.580Z,1.65
2023-03-28T09:02:52.483Z,2.17
2023-03-28T09:05:45.850Z,5.30
2023-03-28T09:08:22.018Z,1.70
2023-03-28T09:11:12.748Z,1.33
2023-03-28T09:14:03.135Z,1.58
2023-03-28T09:16:48.086Z,2.33
2023-03-28T09:19:49.145Z,2.25
2023-03-28T09:22:52.978Z,2.00
2023-03-28T09:25:42.444Z,2.08
2023-03-28T09:28:31.905Z,2.28
2023-03-28T09:31:03.199Z,2.78
2023-03-28T09:33:35.994Z,2.67
2023-03-28T09:36:04.628Z,1.38
2023-03-28T09:38:39.302Z,1.50
2023-03-28T09:41:40.423Z,1.80
2023-03-28T09:44:13.921Z,1.42
2023-03-28T09:46:44.748Z,1.90
2023-03-28T09:49:23.926Z,1.85
2023-03-28T09:51:56.519Z,1.70
2023-03-28T09:54:30.507Z,1.67
2023-03-28T09:57:03.065Z,1.85
2023-03-28T09:59:35.564Z,2.00
2023-03-28T10:02:04.800Z,1.70
2023-03-28T10:04:37.641Z,1.88
2023-03-28T10:07:11.038Z,1.90
2023-03-28T10:09:51.973Z,1.98
2023-03-28T10:12:24.411Z,2.58
2023-03-28T10:14:51.160Z,1.67
2023-03-28T10:17:37.010Z,1.48
2023-03-28T10:20:17.830Z,1.75
2023-03-28T10:22:47.781Z,2.33
2023-03-28T10:25:20.800Z,2.38
2023-03-28T10:27:49.593Z,1.83
2023-03-28T10:30:25.456Z,2.13
2023-03-28T10:33:18.439Z,2.20
2023-03-28T10:35:47.818Z,1.98
2023-03-28T10:38:19.480Z,1.65
2023-03-28T10:41:25.230Z,1.65
2023-03-28T10:43:54.103Z,1.70
2023-03-28T10:46:30.952Z,1.65
2023-03-28T10:49:07.327Z,2.00
2023-03-28T10:51:38.333Z,1.95
2023-03-28T10:54:57.500Z,1.95
2023-03-28T10:57:32.748Z,1.73
2023-03-28T11:00:14.298Z,2.08
2023-03-28T11:02:48.149Z,2.10
2023-03-28T11:06:08.101Z,2.13
2023-03-28T11:08:56.215Z,2.10
2023-03-28T11:11:32.392Z,1.90
2023-03-28T11:14:33.002Z,2.13
2023-03-28T11:17:06.005Z,2.03
2023-03-28T11:19:51.137Z,2.20
2023-03-28T11:22:33.128Z,2.10
2023-03-28T11:25:20.570Z,2.58
2023-03-28T11:28:07.574Z,2.42
2023-03-28T11:30:35.590Z,2.30
2023-03-28T11:33:19.544Z,1.75
2023-03-28T11:36:07.654Z,2.33
2023-03-28T11:38:37.299Z,2.03
2023-03-28T11:41:13.153Z,2.28
2023-03-28T11:43:58.655Z,1.92
2023-03-28T11:46:31.567Z,2.10
2023-03-28T11:49:14.149Z,1.90
2023-03-28T11:51:51.954Z,1.75
2023-03-28T11:54:33.867Z,3.03
2023-03-28T11:57:29.545Z,2.50
2023-03-28T12:00:33.088Z,2.60
2023-03-28T12:03:25.016Z,2.33
2023-03-28T12:06:02.708Z,2.50
2023-03-28T12:08:41.548Z,2.45
2023-03-28T12:11:18.106Z,2.13
2023-03-28T12:14:08.685Z,1.80
2023-03-28T12:16:44.394Z,2.20
2023-03-28T12:19:14.701Z,2.13
2023-03-28T12:21:49.663Z,1.88
2023-03-28T12:24:27.942Z,1.92
2023-03-28T12:27:13.159Z,1.77
2023-03-28T12:30:02.852Z,2.33
2023-03-28T12:32:46.859Z,2.05
2023-03-28T12:35:22.567Z,1.98
2023-03-28T12:38:19.996Z,1.88
2023-03-28T12:40:49.793Z,1.60
2023-03-28T12:43:21.845Z,2.28
2023-03-28T12:45:57.453Z,2.25
2023-03-28T12:48:33.104Z,2.33
2023-03-28T12:51:07.861Z,2.55
2023-03-28T12:53:34.818Z,2.08
2023-03-28T12:56:03.631Z,2.03
2023-03-28T12:58:35.986Z,1.73
2023-03-28T13:01:08.676Z,2.58
2023-03-28T13:03:46.428Z,2.47
2023-03-28T13:06:25.924Z,2.45
2023-03-28T13:09:08.733Z,1.63
2023-03-28T13:11:58.777Z,1.23
2023-03-28T13:14:35.967Z,1.40
2023-03-28T13:17:34.248Z,1.65
2023-03-28T13:20:20.686Z,1.30
2023-03-28T13:23:06.503Z,1.48
2023-03-28T13:25:38.174Z,1.50
2023-03-28T13:28:11.450Z,1.10
2023-03-28T13:30:42.429Z,0.80
2023-03-28T13:33:32.165Z,1.65
2023-03-28T13:35:59.068Z,1.60
2023-03-28T13:38:28.990Z,1.50
2023-03-28T13:41:02.244Z,1.92
2023-03-28T13:43:43.533Z,1.50
2023-03-28T13:46:22.480Z,1.30
2023-03-28T13:49:10.907Z,1.70
2023-03-28T13:51:44.213Z,1.70
2023-03-28T13:54:11.671Z,1.40
2023-03-28T13:56:44.578Z,1.40
2023-03-28T13:59:26.046Z,1.85
2023-03-28T14:01:57.758Z,1.80
2023-03-28T14:04:31.860Z,1.65
2023-03-28T14:06:59.520Z,2.00
2023-03-28T14:09:32.595Z,1.60
2023-03-28T14:12:02.231Z,1.85
2023-03-28T14:14:30.767Z,1.60
2023-03-28T14:17:01.408Z,1.30
2023-03-28T14:19:38.894Z,1.13
2023-03-28T14:22:07.857Z,1.55
2023-03-28T14:24:34.934Z,1.73
2023-03-28T14:27:14.003Z,1.65
2023-03-28T14:29:56.842Z,1.45
2023-03-28T14:32:32.917Z,1.60
2023-03-28T14:35:18.737Z,2.53
2023-03-28T14:37:51.456Z,3.75
2023-03-28T14:40:24.217Z,1.98
2023-03-28T14:42:57.433Z,1.52
2023-03-28T14:45:32.985Z,1.63
2023-03-28T14:48:00.595Z,1.05
2023-03-28T14:50:33.172Z,1.70
2023-03-28T14:53:09.532Z,1.08
2023-03-28T14:55:39.037Z,1.23
2023-03-28T14:58:06.751Z,1.58
2023-03-28T15:00:42.074Z,2.05
2023-03-28T15:03:18.159Z,1.50
2023-03-28T15:05:49.008Z,1.65
2023-03-28T15:08:30.967Z,1.15
2023-03-28T15:11:05.807Z,1.48
2023-03-28T15:13:36.757Z,1.30
2023-03-28T15:16:05.827Z,1.08
2023-03-28T15:18:44.564Z,1.50
2023-03-28T15:21:12.230Z,1.10
2023-03-28T15:23:51.252Z,1.40
2023-03-28T15:26:26.424Z,1.52
2023-03-28T15:28:55.555Z,1.95
2023-03-28T15:31:22.731Z,1.45
2023-03-28T15:33:51.855Z,1.30
2023-03-28T15:36:25.074Z,1.80
2023-03-28T15:39:19.357Z,1.70
2023-03-28T15:41:47.192Z,1.33
2023-03-28T15:44:33.173Z,1.30
2023-03-28T15:47:13.333Z,1.40
2023-03-28T15:49:40.932Z,1.48
2023-03-28T15:52:16.991Z,1.60
2023-03-28T15:54:48.441Z,1.30
2023-03-28T15:57:18.126Z,1.30
2023-03-28T15:59:51.475Z,1.60
2023-03-28T16:02:25.396Z,2.63
2023-03-28T16:05:10.536Z,2.05
2023-03-28T16:07:47.823Z,2.05
2023-03-28T16:10:20.815Z,1.70
2023-03-28T16:12:49.101Z,1.60
2023-03-28T16:15:16.389Z,1.40
2023-03-28T16:17:45.125Z,1.80
2023-03-28T16:20:21.106Z,1.98
2023-03-28T16:22:48.834Z,1.58
2023-03-28T16:25:15.882Z,1.80
2023-03-28T16:27:43.588Z,1.90
2023-03-28T16:30:21.317Z,1.50
2023-03-28T16:32:48.616Z,1.63
2023-03-28T16:35:16.045Z,1.63
2023-03-28T16:37:43.105Z,1.55
2023-03-28T16:40:10.752Z,1.90
2023-03-28T16:42:38.096Z,1.35
2023-03-28T16:45:05.934Z,1.58
2023-03-28T16:47:33.415Z,1.50
2023-03-28T16:50:00.500Z,1.45
2023-03-28T16:52:29.603Z,1.20
2023-03-28T16:54:57.382Z,1.30
2023-03-28T16:57:24.639Z,1.63
2023-03-28T16:59:51.616Z,1.35
2023-03-28T17:02:18.846Z,1.30
2023-03-28T17:04:50.898Z,1.77
2023-03-28T17:07:18.253Z,1.65
2023-03-28T17:09:45.573Z,1.73
2023-03-28T17:12:12.392Z,1.70
2023-03-28T17:14:39.336Z,1.80
2023-03-28T17:17:06.303Z,1.42
2023-03-28T17:19:34.605Z,1.90
2023-03-28T17:22:01.725Z,2.40
2023-03-28T17:24:30.562Z,3.58
2023-03-28T17:26:57.895Z,1.33
2023-03-28T17:29:25.156Z,1.98
2023-03-28T17:31:52.941Z,2.00
2023-03-28T17:34:19.727Z,1.70
2023-03-28T17:36:46.593Z,1.35
2023-03-28T17:39:13.884Z,1.50
2023-03-28T17:41:41.811Z,1.70
2023-03-28T17:44:11.629Z,2.03
2023-03-28T17:46:39.416Z,1.50
2023-03-28T17:49:08.263Z,1.55
2023-03-28T17:51:35.427Z,0.90
2023-03-28T17:54:07.214Z,2.05
2023-03-28T17:56:34.282Z,2.03
2023-03-28T17:59:01.227Z,1.25
2023-03-28T18:01:28.660Z,1.70
2023-03-28T18:03:55.623Z,1.40
2023-03-28T18:06:23.047Z,2.38
2023-03-28T18:08:50.093Z,1.67
2023-03-28T18:11:18.338Z,1.55
2023-03-28T18:13:45.452Z,1.75
2023-03-28T18:16:15.102Z,2.20
2023-03-28T18:18:42.012Z,1.75
2023-03-28T18:21:11.431Z,2.15
2023-03-28T18:23:39.828Z,2.35
2023-03-28T18:26:08.111Z,2.33
2023-03-28T18:28:36.478Z,2.10
2023-03-28T18:31:18.157Z,2.50
2023-03-28T18:33:54.728Z,2.10
2023-03-28T18:36:25.089Z,1.92
2023-03-28T18:38:58.782Z,2.70
2023-03-28T18:41:27.736Z,1.73
2023-03-28T18:43:54.434Z,1.30
2023-03-28T18:46:21.368Z,2.03
2023-03-28T18:48:48.554Z,1.50
2023-03-28T18:51:15.840Z,1.48
2023-03-28T18:53:43.301Z,1.52
2023-03-28T18:56:12.851Z,1.50
2023-03-28T18:58:39.887Z,1.92
2023-03-28T19:01:25.814Z,1.48
2023-03-28T19:03:52.989Z,1.67
2023-03-28T19:06:19.782Z,1.30
2023-03-28T19:08:47.719Z,1.58
2023-03-28T19:11:16.939Z,1.70
2023-03-28T19:13:44.099Z,1.67
2023-03-28T19:16:16.509Z,1.90
2023-03-28T19:18:44.842Z,1.55
2023-03-28T19:21:12.171Z,1.30
2023-03-28T19:23:40.495Z,1.30
2023-03-28T19:26:08.740Z,1.48
2023-03-28T19:28:36.259Z,1.00
2023-03-28T19:31:06.716Z,1.30
2023-03-28T19:33:33.881Z,1.23
2023-03-28T19:36:01.042Z,1.33
2023-03-28T19:38:28.956Z,1.10
2023-03-28T19:41:02.135Z,1.10
2023-03-28T19:43:31.137Z,1.10
2023-03-28T19:46:05.979Z,2.03
2023-03-28T19:48:35.269Z,1.85
2023-03-28T19:51:02.241Z,1.20
2023-03-28T19:53:29.588Z,1.30
2023-03-28T19:56:02.346Z,1.00
2023-03-28T19:58:29.525Z,1.70
2023-03-28T20:00:57.294Z,1.02
2023-03-28T20:03:24.772Z,0.90
2023-03-28T20:05:54.832Z,0.90
2023-03-28T20:08:26.554Z,1.08
2023-03-28T20:11:00.166Z,1.00
2023-03-28T20:13:32.328Z,1.17
2023-03-28T20:16:03.670Z,1.63
2023-03-28T20:18:32.788Z,1.60
2023-03-28T20:21:05.427Z,1.38
2023-03-28T20:23:36.928Z,1.52
2023-03-28T20:26:15.358Z,1.48
2023-03-28T20:28:42.333Z,1.92
2023-03-28T20:31:14.930Z,1.40
2023-03-28T20:33:42.229Z,1.75
2023-03-28T20:36:09.212Z,1.95
2023-03-28T20:38:36.342Z,2.38
2023-03-28T20:41:03.799Z,2.40
2023-03-28T20:43:35.893Z,2.10
2023-03-28T20:46:03.211Z,1.48
2023-03-28T20:48:37.093Z,1.48
2023-03-28T20:51:06.206Z,2.50
2023-03-28T20:53:34.822Z,1.83
2023-03-28T20:56:04.727Z,1.63
2023-03-28T20:58:32.745Z,1.60
2023-03-28T21:01:01.594Z,1.73
2023-03-28T21:03:47.132Z,1.35
2023-03-28T21:06:24.746Z,1.35
2023-03-28T21:08:56.482Z,1.48
2023-03-28T21:11:28.534Z,1.48
2023-03-28T21:13:56.729Z,1.20
2023-03-28T21:16:24.449Z,1.10
2023-03-28T21:18:51.277Z,2.08
2023-03-28T21:21:19.768Z,1.40
2023-03-28T21:23:47.054Z,1.38
2023-03-28T21:26:17.477Z,1.70
2023-03-28T21:28:45.446Z,1.65
2023-03-28T21:31:14.506Z,1.17
2023-03-28T21:33:42.765Z,1.40
2023-03-28T21:36:12.438Z,1.45
2023-03-28T21:38:40.826Z,1.30
2023-03-28T21:41:07.640Z,1.45
2023-03-28T21:43:35.451Z,1.45
2023-03-28T21:46:03.684Z,1.15
2023-03-28T21:48:30.488Z,1.80
2023-03-28T21:51:02.027Z,1.60
2023-03-28T21:53:31.463Z,1.27
2023-03-28T21:55:59.575Z,1.27
2023-03-28T21:58:28.746Z,0.90
2023-03-28T22:00:55.876Z,1.20
2023-03-28T22:03:22.965Z,1.10
2023-03-28T22:05:52.080Z,1.13
2023-03-28T22:08:19.877Z,1.25
2023-03-28T22:10:50.134Z,1.10
2023-03-28T22:13:17.126Z,1.20
2023-03-28T22:15:43.904Z,1.10
2023-03-28T22:18:11.733Z,1.38
2023-03-28T22:20:41.397Z,1.15
2023-03-28T22:23:09.264Z,1.00
2023-03-28T22:25:38.614Z,0.95
2023-03-28T22:28:09.542Z,1.20
2023-03-28T22:30:38.860Z,0.90
2023-03-28T22:33:07.378Z,1.20
2023-03-28T22:35:34.371Z,1.02
2023-03-28T22:38:02.131Z,1.77
2023-03-28T22:40:29.003Z,1.52
2023-03-28T22:42:56.015Z,0.90
2023-03-28T22:45:24.130Z,1.55
2023-03-28T22:47:51.289Z,1.10
2023-03-28T22:50:18.799Z,1.13
2023-03-28T22:52:50.788Z,1.25
2023-03-28T22:55:18.789Z,1.27
2023-03-28T22:57:47.020Z,1.52
2023-03-28T23:00:14.840Z,1.48
2023-03-28T23:02:42.107Z,1.60
2023-03-28T23:05:11.093Z,1.25
2023-03-28T23:07:38.354Z,1.52
2023-03-28T23:10:09.271Z,1.70
2023-03-28T23:12:35.968Z,1.50
2023-03-28T23:15:04.446Z,1.40
2023-03-28T23:17:35.014Z,1.35
2023-03-28T23:20:02.125Z,1.83
2023-03-28T23:22:28.963Z,2.22
2023-03-28T23:24:56.487Z,2.15
2023-03-28T23:27:23.452Z,1.90
2023-03-28T23:29:50.363Z,1.77
2023-03-28T23:32:17.480Z,1.40
2023-03-28T23:34:44.192Z,2.10
2023-03-28T23:37:11.353Z,1.70
2023-03-28T23:39:39.584Z,1.73
2023-03-28T23:42:06.364Z,1.98
2023-03-28T23:44:34.563Z,1.90
2023-03-28T23:47:01.902Z,1.98
2023-03-28T23:49:28.758Z,2.38
2023-03-28T23:51:55.653Z,2.28
2023-03-28T23:54:22.623Z,2.55
2023-03-28T23:56:49.400Z,1.88
2023-03-28T23:59:16.737Z,2.40
